CYNR

SPECI CYNR 301912Z AUTO 00000KT 1 3/4SM CLR 21/12 A2988 RMK AO2 SLP114
SPECI
LOCATION
CYNR
DATE - TIME
301912Z
WIND
CALM WIND
VISIBILITY
1 3/4SM
RUNWAY VISUAL RANGE
NOT REPORTED
WEATHER
CLOUDINESS
CLR
TEMP / DEWPOINT
21 ºC / 12 ºC
ALTIMETER
29.88 in. Hg
RECENT WEATHER
NOT REPORTED
WIND SHEAR
NOT REPORTED
REMARKS
RMK AO2 SLP114
SEA LEVEL PRESSURE: hPa

CYNR

SPECI CYNR 301911Z AUTO 00000KT 2SM CLR 21/12 A2988 RMK AO2 SLP114
SPECI
LOCATION
CYNR
DATE - TIME
301911Z
WIND
CALM WIND
VISIBILITY
2SM
RUNWAY VISUAL RANGE
NOT REPORTED
WEATHER
CLOUDINESS
CLR
TEMP / DEWPOINT
21 ºC / 12 ºC
ALTIMETER
29.88 in. Hg
RECENT WEATHER
NOT REPORTED
WIND SHEAR
NOT REPORTED
REMARKS
RMK AO2 SLP114
SEA LEVEL PRESSURE: hPa

CYNR

SPECI CYNR 301905Z AUTO 00000KT 1 3/4SM FEW220 21/12 A2988 RMK AO2 SLP115
SPECI
LOCATION
CYNR
DATE - TIME
301905Z
WIND
CALM WIND
VISIBILITY
1 3/4SM
RUNWAY VISUAL RANGE
NOT REPORTED
WEATHER
CLOUDINESS
FEW220
TEMP / DEWPOINT
21 ºC / 12 ºC
ALTIMETER
29.88 in. Hg
RECENT WEATHER
NOT REPORTED
WIND SHEAR
NOT REPORTED
REMARKS
RMK AO2 SLP115
SEA LEVEL PRESSURE: hPa

Your time UTC time
 
 
Weather data provided by AXYS Technologies Inc., www.axystechnologies.com
 
Station History